sensor_id;sensor_type;location;lat;lon;timestamp;temperature;humidity
51559;DHT22;61650;48.882;2.092;2022-10-16T00:01:35;14.50;89.70
51559;DHT22;61650;48.882;2.092;2022-10-16T00:04:01;14.50;89.50
51559;DHT22;61650;48.882;2.092;2022-10-16T00:06:28;14.40;89.50
51559;DHT22;61650;48.882;2.092;2022-10-16T00:08:54;14.40;89.70
51559;DHT22;61650;48.882;2.092;2022-10-16T00:11:23;14.40;89.60
51559;DHT22;61650;48.882;2.092;2022-10-16T00:13:51;14.20;89.60
51559;DHT22;61650;48.882;2.092;2022-10-16T00:16:18;14.20;90.00
51559;DHT22;61650;48.882;2.092;2022-10-16T00:18:44;14.20;90.20
51559;DHT22;61650;48.882;2.092;2022-10-16T00:21:24;14.30;90.50
51559;DHT22;61650;48.882;2.092;2022-10-16T00:23:52;14.30;90.50
51559;DHT22;61650;48.882;2.092;2022-10-16T00:26:18;14.30;90.50
51559;DHT22;61650;48.882;2.092;2022-10-16T00:28:48;14.40;90.80
51559;DHT22;61650;48.882;2.092;2022-10-16T00:31:14;14.40;90.90
51559;DHT22;61650;48.882;2.092;2022-10-16T00:33:41;14.50;90.70
51559;DHT22;61650;48.882;2.092;2022-10-16T00:36:09;14.50;90.70
51559;DHT22;61650;48.882;2.092;2022-10-16T00:38:35;14.60;90.30
51559;DHT22;61650;48.882;2.092;2022-10-16T00:41:03;14.60;89.80
51559;DHT22;61650;48.882;2.092;2022-10-16T00:43:58;14.60;90.50
51559;DHT22;61650;48.882;2.092;2022-10-16T00:46:44;14.70;90.40
51559;DHT22;61650;48.882;2.092;2022-10-16T00:49:10;14.70;89.30
51559;DHT22;61650;48.882;2.092;2022-10-16T00:54:13;14.70;88.50
51559;DHT22;61650;48.882;2.092;2022-10-16T00:56:39;14.70;87.80
51559;DHT22;61650;48.882;2.092;2022-10-16T00:59:14;14.70;88.00
51559;DHT22;61650;48.882;2.092;2022-10-16T01:01:40;14.60;88.70
51559;DHT22;61650;48.882;2.092;2022-10-16T01:04:06;14.60;88.90
51559;DHT22;61650;48.882;2.092;2022-10-16T01:06:42;14.60;88.00
51559;DHT22;61650;48.882;2.092;2022-10-16T01:21:10;14.60;89.20
51559;DHT22;61650;48.882;2.092;2022-10-16T01:26:27;14.70;88.90
51559;DHT22;61650;48.882;2.092;2022-10-16T01:31:47;14.70;88.70
51559;DHT22;61650;48.882;2.092;2022-10-16T01:34:21;14.60;89.10
51559;DHT22;61650;48.882;2.092;2022-10-16T01:36:55;14.60;89.30
51559;DHT22;61650;48.882;2.092;2022-10-16T01:39:25;14.60;89.40
51559;DHT22;61650;48.882;2.092;2022-10-16T01:42:24;14.60;89.00
51559;DHT22;61650;48.882;2.092;2022-10-16T01:44:53;14.60;89.60
51559;DHT22;61650;48.882;2.092;2022-10-16T01:47:23;14.60;87.80
51559;DHT22;61650;48.882;2.092;2022-10-16T01:49:51;14.60;88.20
51559;DHT22;61650;48.882;2.092;2022-10-16T01:52:20;14.60;88.30
51559;DHT22;61650;48.882;2.092;2022-10-16T01:54:47;14.50;88.60
51559;DHT22;61650;48.882;2.092;2022-10-16T01:57:16;14.50;88.20
51559;DHT22;61650;48.882;2.092;2022-10-16T01:59:45;14.40;88.80
51559;DHT22;61650;48.882;2.092;2022-10-16T02:02:16;14.40;88.60
51559;DHT22;61650;48.882;2.092;2022-10-16T02:04:46;14.40;88.60
51559;DHT22;61650;48.882;2.092;2022-10-16T02:07:15;14.40;88.60
51559;DHT22;61650;48.882;2.092;2022-10-16T02:09:41;14.40;88.50
51559;DHT22;61650;48.882;2.092;2022-10-16T02:12:16;14.40;88.00
51559;DHT22;61650;48.882;2.092;2022-10-16T02:14:44;14.40;88.70
51559;DHT22;61650;48.882;2.092;2022-10-16T02:17:15;14.40;88.00
51559;DHT22;61650;48.882;2.092;2022-10-16T02:19:42;14.40;87.80
51559;DHT22;61650;48.882;2.092;2022-10-16T02:22:34;14.40;88.40
51559;DHT22;61650;48.882;2.092;2022-10-16T02:30:41;14.40;88.70
51559;DHT22;61650;48.882;2.092;2022-10-16T02:33:10;14.50;87.70
51559;DHT22;61650;48.882;2.092;2022-10-16T02:35:36;14.50;88.20
51559;DHT22;61650;48.882;2.092;2022-10-16T02:38:03;14.50;88.00
51559;DHT22;61650;48.882;2.092;2022-10-16T02:40:30;14.60;87.60
51559;DHT22;61650;48.882;2.092;2022-10-16T02:42:55;14.60;87.90
51559;DHT22;61650;48.882;2.092;2022-10-16T02:45:22;14.60;87.50
51559;DHT22;61650;48.882;2.092;2022-10-16T02:47:48;14.60;87.50
51559;DHT22;61650;48.882;2.092;2022-10-16T02:50:14;14.60;87.30
51559;DHT22;61650;48.882;2.092;2022-10-16T02:52:40;14.60;87.30
51559;DHT22;61650;48.882;2.092;2022-10-16T02:55:06;14.60;85.80
51559;DHT22;61650;48.882;2.092;2022-10-16T02:57:31;14.60;86.00
51559;DHT22;61650;48.882;2.092;2022-10-16T02:59:57;14.60;86.90
51559;DHT22;61650;48.882;2.092;2022-10-16T03:02:23;14.60;86.50
51559;DHT22;61650;48.882;2.092;2022-10-16T03:04:49;14.60;86.60
51559;DHT22;61650;48.882;2.092;2022-10-16T03:07:14;14.60;87.00
51559;DHT22;61650;48.882;2.092;2022-10-16T03:09:40;14.60;86.70
51559;DHT22;61650;48.882;2.092;2022-10-16T03:12:05;14.60;87.40
51559;DHT22;61650;48.882;2.092;2022-10-16T03:14:32;14.60;87.00
51559;DHT22;61650;48.882;2.092;2022-10-16T03:16:57;14.60;87.60
51559;DHT22;61650;48.882;2.092;2022-10-16T03:19:23;14.50;87.50
51559;DHT22;61650;48.882;2.092;2022-10-16T03:21:48;14.50;87.80
51559;DHT22;61650;48.882;2.092;2022-10-16T03:24:14;14.50;86.60
51559;DHT22;61650;48.882;2.092;2022-10-16T03:26:39;14.50;87.20
51559;DHT22;61650;48.882;2.092;2022-10-16T03:29:05;14.50;87.10
51559;DHT22;61650;48.882;2.092;2022-10-16T03:31:32;14.40;86.80
51559;DHT22;61650;48.882;2.092;2022-10-16T03:33:58;14.40;87.40
51559;DHT22;61650;48.882;2.092;2022-10-16T03:36:24;14.40;87.10
51559;DHT22;61650;48.882;2.092;2022-10-16T03:38:49;14.40;87.30
51559;DHT22;61650;48.882;2.092;2022-10-16T03:41:15;14.40;87.50
51559;DHT22;61650;48.882;2.092;2022-10-16T03:43:41;14.30;86.50
51559;DHT22;61650;48.882;2.092;2022-10-16T03:46:06;14.30;87.40
51559;DHT22;61650;48.882;2.092;2022-10-16T03:48:32;14.30;88.80
51559;DHT22;61650;48.882;2.092;2022-10-16T03:50:58;14.20;87.20
51559;DHT22;61650;48.882;2.092;2022-10-16T03:53:23;14.20;87.10
51559;DHT22;61650;48.882;2.092;2022-10-16T03:55:49;14.20;87.00
51559;DHT22;61650;48.882;2.092;2022-10-16T03:58:15;14.20;87.80
51559;DHT22;61650;48.882;2.092;2022-10-16T04:00:45;14.10;88.00
51559;DHT22;61650;48.882;2.092;2022-10-16T04:03:11;14.20;88.80
51559;DHT22;61650;48.882;2.092;2022-10-16T04:05:37;14.20;88.50
51559;DHT22;61650;48.882;2.092;2022-10-16T04:08:03;14.20;87.90
51559;DHT22;61650;48.882;2.092;2022-10-16T04:10:29;14.20;87.90
51559;DHT22;61650;48.882;2.092;2022-10-16T04:12:54;14.20;87.60
51559;DHT22;61650;48.882;2.092;2022-10-16T04:15:22;14.20;88.30
51559;DHT22;61650;48.882;2.092;2022-10-16T04:17:48;14.20;87.70
51559;DHT22;61650;48.882;2.092;2022-10-16T04:20:14;14.20;87.90
51559;DHT22;61650;48.882;2.092;2022-10-16T04:22:39;14.20;88.00
51559;DHT22;61650;48.882;2.092;2022-10-16T04:25:05;14.20;89.10
51559;DHT22;61650;48.882;2.092;2022-10-16T04:27:31;14.20;89.60
51559;DHT22;61650;48.882;2.092;2022-10-16T04:30:00;14.10;88.40
51559;DHT22;61650;48.882;2.092;2022-10-16T04:32:26;14.10;89.30
51559;DHT22;61650;48.882;2.092;2022-10-16T04:34:52;14.10;89.20
51559;DHT22;61650;48.882;2.092;2022-10-16T04:37:18;14.20;89.30
51559;DHT22;61650;48.882;2.092;2022-10-16T04:39:43;14.20;89.50
51559;DHT22;61650;48.882;2.092;2022-10-16T04:42:10;14.20;89.80
51559;DHT22;61650;48.882;2.092;2022-10-16T04:44:36;14.10;90.00
51559;DHT22;61650;48.882;2.092;2022-10-16T04:47:01;14.20;89.10
51559;DHT22;61650;48.882;2.092;2022-10-16T04:49:27;14.20;88.90
51559;DHT22;61650;48.882;2.092;2022-10-16T04:51:53;14.20;89.50
51559;DHT22;61650;48.882;2.092;2022-10-16T04:54:18;14.20;89.20
51559;DHT22;61650;48.882;2.092;2022-10-16T04:56:44;14.10;90.50
51559;DHT22;61650;48.882;2.092;2022-10-16T04:59:14;14.10;90.90
51559;DHT22;61650;48.882;2.092;2022-10-16T05:01:43;14.10;90.00
51559;DHT22;61650;48.882;2.092;2022-10-16T05:04:08;14.10;90.80
51559;DHT22;61650;48.882;2.092;2022-10-16T05:06:34;14.10;91.10
51559;DHT22;61650;48.882;2.092;2022-10-16T05:09:00;14.10;90.80
51559;DHT22;61650;48.882;2.092;2022-10-16T05:11:26;14.10;91.10
51559;DHT22;61650;48.882;2.092;2022-10-16T05:13:51;14.00;91.10
51559;DHT22;61650;48.882;2.092;2022-10-16T05:16:20;13.90;90.00
51559;DHT22;61650;48.882;2.092;2022-10-16T05:18:45;13.80;90.30
51559;DHT22;61650;48.882;2.092;2022-10-16T05:21:11;13.80;91.20
51559;DHT22;61650;48.882;2.092;2022-10-16T05:23:36;13.80;91.80
51559;DHT22;61650;48.882;2.092;2022-10-16T05:26:02;13.80;92.10
51559;DHT22;61650;48.882;2.092;2022-10-16T05:28:29;13.80;91.30
51559;DHT22;61650;48.882;2.092;2022-10-16T05:30:56;13.80;91.80
51559;DHT22;61650;48.882;2.092;2022-10-16T05:33:23;13.80;92.00
51559;DHT22;61650;48.882;2.092;2022-10-16T05:35:49;13.80;92.20
51559;DHT22;61650;48.882;2.092;2022-10-16T05:38:15;13.80;92.20
51559;DHT22;61650;48.882;2.092;2022-10-16T05:40:41;13.80;91.70
51559;DHT22;61650;48.882;2.092;2022-10-16T05:43:07;13.70;91.40
51559;DHT22;61650;48.882;2.092;2022-10-16T05:45:32;13.70;91.00
51559;DHT22;61650;48.882;2.092;2022-10-16T05:47:59;13.60;91.30
51559;DHT22;61650;48.882;2.092;2022-10-16T05:50:24;13.60;91.50
51559;DHT22;61650;48.882;2.092;2022-10-16T05:52:50;13.60;92.30
51559;DHT22;61650;48.882;2.092;2022-10-16T05:55:16;13.60;91.50
51559;DHT22;61650;48.882;2.092;2022-10-16T05:57:41;13.50;91.70
51559;DHT22;61650;48.882;2.092;2022-10-16T06:00:07;13.40;92.00
51559;DHT22;61650;48.882;2.092;2022-10-16T06:02:33;13.40;92.20
51559;DHT22;61650;48.882;2.092;2022-10-16T06:04:58;13.50;92.80
51559;DHT22;61650;48.882;2.092;2022-10-16T06:07:24;13.50;93.10
51559;DHT22;61650;48.882;2.092;2022-10-16T06:09:51;13.50;93.30
51559;DHT22;61650;48.882;2.092;2022-10-16T06:12:17;13.50;92.50
51559;DHT22;61650;48.882;2.092;2022-10-16T06:14:43;13.40;92.10
51559;DHT22;61650;48.882;2.092;2022-10-16T06:17:09;13.30;92.60
51559;DHT22;61650;48.882;2.092;2022-10-16T06:19:35;13.30;92.50
51559;DHT22;61650;48.882;2.092;2022-10-16T06:22:00;13.10;92.20
51559;DHT22;61650;48.882;2.092;2022-10-16T06:24:27;13.10;92.60
51559;DHT22;61650;48.882;2.092;2022-10-16T06:26:53;13.10;92.70
51559;DHT22;61650;48.882;2.092;2022-10-16T06:29:21;13.20;93.10
51559;DHT22;61650;48.882;2.092;2022-10-16T06:31:46;13.00;92.20
51559;DHT22;61650;48.882;2.092;2022-10-16T06:34:12;12.90;92.30
51559;DHT22;61650;48.882;2.092;2022-10-16T06:36:38;12.80;92.80
51559;DHT22;61650;48.882;2.092;2022-10-16T06:39:05;12.80;93.10
51559;DHT22;61650;48.882;2.092;2022-10-16T06:41:32;12.90;93.00
51559;DHT22;61650;48.882;2.092;2022-10-16T06:43:58;12.90;93.30
51559;DHT22;61650;48.882;2.092;2022-10-16T06:46:25;13.10;93.60
51559;DHT22;61650;48.882;2.092;2022-10-16T06:48:51;13.10;93.30
51559;DHT22;61650;48.882;2.092;2022-10-16T06:51:19;13.00;92.50
51559;DHT22;61650;48.882;2.092;2022-10-16T06:53:47;13.10;92.90
51559;DHT22;61650;48.882;2.092;2022-10-16T06:56:27;13.10;92.50
51559;DHT22;61650;48.882;2.092;2022-10-16T06:58:53;13.20;93.40
51559;DHT22;61650;48.882;2.092;2022-10-16T07:01:22;13.20;92.90
51559;DHT22;61650;48.882;2.092;2022-10-16T07:03:48;13.30;93.00
51559;DHT22;61650;48.882;2.092;2022-10-16T07:06:16;13.30;93.30
51559;DHT22;61650;48.882;2.092;2022-10-16T07:08:44;13.40;93.50
51559;DHT22;61650;48.882;2.092;2022-10-16T07:11:15;13.40;93.70
51559;DHT22;61650;48.882;2.092;2022-10-16T07:13:43;13.50;93.40
51559;DHT22;61650;48.882;2.092;2022-10-16T07:16:14;13.50;93.60
51559;DHT22;61650;48.882;2.092;2022-10-16T07:18:41;13.50;93.00
51559;DHT22;61650;48.882;2.092;2022-10-16T07:21:13;13.50;93.10
51559;DHT22;61650;48.882;2.092;2022-10-16T07:23:39;13.60;92.90
51559;DHT22;61650;48.882;2.092;2022-10-16T07:26:05;13.50;91.80
51559;DHT22;61650;48.882;2.092;2022-10-16T07:28:32;13.50;92.10
51559;DHT22;61650;48.882;2.092;2022-10-16T07:31:07;13.60;93.10
51559;DHT22;61650;48.882;2.092;2022-10-16T07:33:34;13.80;93.60
51559;DHT22;61650;48.882;2.092;2022-10-16T07:36:00;13.90;93.40
51559;DHT22;61650;48.882;2.092;2022-10-16T07:38:26;14.00;92.80
51559;DHT22;61650;48.882;2.092;2022-10-16T07:40:59;13.90;91.20
51559;DHT22;61650;48.882;2.092;2022-10-16T07:43:26;14.00;90.80
51559;DHT22;61650;48.882;2.092;2022-10-16T07:45:52;14.00;90.40
51559;DHT22;61650;48.882;2.092;2022-10-16T07:48:18;14.00;91.30
51559;DHT22;61650;48.882;2.092;2022-10-16T07:50:44;14.10;91.50
51559;DHT22;61650;48.882;2.092;2022-10-16T07:53:11;14.00;90.70
51559;DHT22;61650;48.882;2.092;2022-10-16T07:55:37;14.00;91.10
51559;DHT22;61650;48.882;2.092;2022-10-16T07:58:03;14.10;91.30
51559;DHT22;61650;48.882;2.092;2022-10-16T08:00:29;14.20;91.90
51559;DHT22;61650;48.882;2.092;2022-10-16T08:02:56;14.30;91.00
51559;DHT22;61650;48.882;2.092;2022-10-16T08:05:26;14.40;91.30
51559;DHT22;61650;48.882;2.092;2022-10-16T08:07:51;14.50;91.10
51559;DHT22;61650;48.882;2.092;2022-10-16T08:10:18;14.50;91.90
51559;DHT22;61650;48.882;2.092;2022-10-16T08:12:44;14.60;91.40
51559;DHT22;61650;48.882;2.092;2022-10-16T08:15:10;14.60;90.30
51559;DHT22;61650;48.882;2.092;2022-10-16T08:17:36;14.70;90.80
51559;DHT22;61650;48.882;2.092;2022-10-16T08:20:01;14.70;90.80
51559;DHT22;61650;48.882;2.092;2022-10-16T08:22:27;14.80;90.40
51559;DHT22;61650;48.882;2.092;2022-10-16T08:24:53;14.80;90.90
51559;DHT22;61650;48.882;2.092;2022-10-16T08:27:19;14.80;89.00
51559;DHT22;61650;48.882;2.092;2022-10-16T08:29:44;14.80;88.50
51559;DHT22;61650;48.882;2.092;2022-10-16T08:32:10;14.90;90.10
51559;DHT22;61650;48.882;2.092;2022-10-16T08:34:36;14.90;88.70
51559;DHT22;61650;48.882;2.092;2022-10-16T08:37:01;14.90;87.90
51559;DHT22;61650;48.882;2.092;2022-10-16T08:39:27;14.90;88.50
51559;DHT22;61650;48.882;2.092;2022-10-16T08:44:41;14.90;88.40
51559;DHT22;61650;48.882;2.092;2022-10-16T08:49:43;15.10;88.20
51559;DHT22;61650;48.882;2.092;2022-10-16T08:52:15;15.20;86.80
51559;DHT22;61650;48.882;2.092;2022-10-16T08:54:47;15.30;87.00
51559;DHT22;61650;48.882;2.092;2022-10-16T08:57:18;15.40;87.80
51559;DHT22;61650;48.882;2.092;2022-10-16T08:59:45;15.40;87.60
51559;DHT22;61650;48.882;2.092;2022-10-16T09:08:06;15.70;84.10
51559;DHT22;61650;48.882;2.092;2022-10-16T09:10:56;15.70;85.10
51559;DHT22;61650;48.882;2.092;2022-10-16T09:16:14;15.90;84.90
51559;DHT22;61650;48.882;2.092;2022-10-16T09:21:21;16.00;83.90
51559;DHT22;61650;48.882;2.092;2022-10-16T09:23:49;16.00;76.60
51559;DHT22;61650;48.882;2.092;2022-10-16T09:26:16;16.10;82.00
51559;DHT22;61650;48.882;2.092;2022-10-16T09:28:43;16.20;82.20
51559;DHT22;61650;48.882;2.092;2022-10-16T09:31:20;16.20;81.70
51559;DHT22;61650;48.882;2.092;2022-10-16T09:33:59;16.20;83.10
51559;DHT22;61650;48.882;2.092;2022-10-16T09:36:27;16.30;82.50
51559;DHT22;61650;48.882;2.092;2022-10-16T09:39:08;16.20;82.90
51559;DHT22;61650;48.882;2.092;2022-10-16T09:41:38;16.20;78.00
51559;DHT22;61650;48.882;2.092;2022-10-16T09:44:13;16.30;80.70
51559;DHT22;61650;48.882;2.092;2022-10-16T09:46:41;16.30;82.40
51559;DHT22;61650;48.882;2.092;2022-10-16T09:49:25;16.40;82.10
51559;DHT22;61650;48.882;2.092;2022-10-16T09:54:31;16.50;82.50
51559;DHT22;61650;48.882;2.092;2022-10-16T09:57:12;16.60;82.20
51559;DHT22;61650;48.882;2.092;2022-10-16T09:59:47;16.60;81.70
51559;DHT22;61650;48.882;2.092;2022-10-16T10:02:14;16.60;81.10
51559;DHT22;61650;48.882;2.092;2022-10-16T10:04:44;16.60;81.70
51559;DHT22;61650;48.882;2.092;2022-10-16T10:07:25;16.60;78.80
51559;DHT22;61650;48.882;2.092;2022-10-16T10:09:55;16.60;81.30
51559;DHT22;61650;48.882;2.092;2022-10-16T10:12:27;16.50;80.70
51559;DHT22;61650;48.882;2.092;2022-10-16T10:14:58;16.50;82.20
51559;DHT22;61650;48.882;2.092;2022-10-16T10:17:29;16.60;81.60
51559;DHT22;61650;48.882;2.092;2022-10-16T10:20:00;16.70;80.90
51559;DHT22;61650;48.882;2.092;2022-10-16T10:28:00;17.00;81.40
51559;DHT22;61650;48.882;2.092;2022-10-16T10:33:37;17.20;81.20
51559;DHT22;61650;48.882;2.092;2022-10-16T10:49:57;17.50;79.80
51559;DHT22;61650;48.882;2.092;2022-10-16T10:52:57;17.50;80.00
51559;DHT22;61650;48.882;2.092;2022-10-16T10:58:37;17.50;80.00
51559;DHT22;61650;48.882;2.092;2022-10-16T11:01:14;17.60;78.20
51559;DHT22;61650;48.882;2.092;2022-10-16T11:06:40;17.70;78.60
51559;DHT22;61650;48.882;2.092;2022-10-16T11:12:12;17.70;76.80
51559;DHT22;61650;48.882;2.092;2022-10-16T11:14:48;17.80;77.20
51559;DHT22;61650;48.882;2.092;2022-10-16T11:17:21;17.80;77.40
51559;DHT22;61650;48.882;2.092;2022-10-16T11:20:30;17.80;79.60
51559;DHT22;61650;48.882;2.092;2022-10-16T11:23:13;17.90;73.40
51559;DHT22;61650;48.882;2.092;2022-10-16T11:25:40;17.90;77.00
51559;DHT22;61650;48.882;2.092;2022-10-16T11:30:44;17.90;76.50
51559;DHT22;61650;48.882;2.092;2022-10-16T11:35:55;18.20;79.90
51559;DHT22;61650;48.882;2.092;2022-10-16T11:38:38;18.30;76.60
51559;DHT22;61650;48.882;2.092;2022-10-16T11:41:18;18.30;73.00
51559;DHT22;61650;48.882;2.092;2022-10-16T11:46:36;18.20;77.70
51559;DHT22;61650;48.882;2.092;2022-10-16T11:49:08;18.20;77.50
51559;DHT22;61650;48.882;2.092;2022-10-16T11:51:38;18.20;78.80
51559;DHT22;61650;48.882;2.092;2022-10-16T11:54:20;18.20;78.70
51559;DHT22;61650;48.882;2.092;2022-10-16T11:56:50;18.10;77.80
51559;DHT22;61650;48.882;2.092;2022-10-16T11:59:42;18.10;77.60
51559;DHT22;61650;48.882;2.092;2022-10-16T12:05:29;18.10;77.00
51559;DHT22;61650;48.882;2.092;2022-10-16T12:08:14;18.20;77.90
51559;DHT22;61650;48.882;2.092;2022-10-16T12:10:43;18.10;78.50
51559;DHT22;61650;48.882;2.092;2022-10-16T12:18:30;18.10;77.90
51559;DHT22;61650;48.882;2.092;2022-10-16T12:20:57;18.00;81.00
51559;DHT22;61650;48.882;2.092;2022-10-16T12:23:30;17.80;79.10
51559;DHT22;61650;48.882;2.092;2022-10-16T12:25:58;17.80;79.50
51559;DHT22;61650;48.882;2.092;2022-10-16T12:28:29;17.80;78.20
51559;DHT22;61650;48.882;2.092;2022-10-16T12:31:00;17.80;81.20
51559;DHT22;61650;48.882;2.092;2022-10-16T12:34:14;17.90;80.50
51559;DHT22;61650;48.882;2.092;2022-10-16T12:36:32;17.90;81.10
51559;DHT22;61650;48.882;2.092;2022-10-16T12:38:59;18.00;80.10
51559;DHT22;61650;48.882;2.092;2022-10-16T12:41:29;18.00;81.00
51559;DHT22;61650;48.882;2.092;2022-10-16T12:43:55;18.10;81.70
51559;DHT22;61650;48.882;2.092;2022-10-16T12:46:35;18.10;80.70
51559;DHT22;61650;48.882;2.092;2022-10-16T12:51:54;18.10;78.40
51559;DHT22;61650;48.882;2.092;2022-10-16T12:57:19;18.20;81.00
51559;DHT22;61650;48.882;2.092;2022-10-16T13:00:02;18.30;79.20
51559;DHT22;61650;48.882;2.092;2022-10-16T13:03:01;18.40;81.80
51559;DHT22;61650;48.882;2.092;2022-10-16T13:16:29;18.70;81.20
51559;DHT22;61650;48.882;2.092;2022-10-16T13:19:08;18.70;81.10
51559;DHT22;61650;48.882;2.092;2022-10-16T13:21:53;18.70;81.30
51559;DHT22;61650;48.882;2.092;2022-10-16T13:30:02;19.10;79.70
51559;DHT22;61650;48.882;2.092;2022-10-16T13:32:33;19.20;80.20
51559;DHT22;61650;48.882;2.092;2022-10-16T13:34:58;19.10;79.90
51559;DHT22;61650;48.882;2.092;2022-10-16T13:37:26;19.10;79.20
51559;DHT22;61650;48.882;2.092;2022-10-16T13:40:08;19.10;79.70
51559;DHT22;61650;48.882;2.092;2022-10-16T13:42:37;18.90;79.60
51559;DHT22;61650;48.882;2.092;2022-10-16T13:45:03;18.90;80.60
51559;DHT22;61650;48.882;2.092;2022-10-16T13:47:29;18.80;79.30
51559;DHT22;61650;48.882;2.092;2022-10-16T13:50:09;18.80;79.90
51559;DHT22;61650;48.882;2.092;2022-10-16T13:52:36;18.70;81.10
51559;DHT22;61650;48.882;2.092;2022-10-16T13:55:13;18.80;80.90
51559;DHT22;61650;48.882;2.092;2022-10-16T13:57:39;18.80;81.70
51559;DHT22;61650;48.882;2.092;2022-10-16T14:00:26;18.80;80.80
51559;DHT22;61650;48.882;2.092;2022-10-16T14:03:04;18.90;80.00
51559;DHT22;61650;48.882;2.092;2022-10-16T14:05:31;19.00;81.00
51559;DHT22;61650;48.882;2.092;2022-10-16T14:07:59;19.10;81.20
51559;DHT22;61650;48.882;2.092;2022-10-16T14:10:28;19.10;81.70
51559;DHT22;61650;48.882;2.092;2022-10-16T14:13:06;19.10;82.90
51559;DHT22;61650;48.882;2.092;2022-10-16T14:15:34;19.10;81.40
51559;DHT22;61650;48.882;2.092;2022-10-16T14:18:01;19.10;81.30
51559;DHT22;61650;48.882;2.092;2022-10-16T14:20:32;19.10;80.50
51559;DHT22;61650;48.882;2.092;2022-10-16T14:25:49;19.10;82.00
51559;DHT22;61650;48.882;2.092;2022-10-16T14:28:22;19.10;81.40
51559;DHT22;61650;48.882;2.092;2022-10-16T14:30:56;19.30;81.80
51559;DHT22;61650;48.882;2.092;2022-10-16T14:38:29;19.60;80.60
51559;DHT22;61650;48.882;2.092;2022-10-16T14:40:57;19.60;80.60
51559;DHT22;61650;48.882;2.092;2022-10-16T14:43:36;19.50;81.10
51559;DHT22;61650;48.882;2.092;2022-10-16T14:46:30;19.50;81.00
51559;DHT22;61650;48.882;2.092;2022-10-16T14:49:23;19.30;78.50
51559;DHT22;61650;48.882;2.092;2022-10-16T14:51:48;19.30;81.30
51559;DHT22;61650;48.882;2.092;2022-10-16T14:54:16;19.30;79.70
51559;DHT22;61650;48.882;2.092;2022-10-16T14:56:54;19.30;81.00
51559;DHT22;61650;48.882;2.092;2022-10-16T14:59:31;19.20;81.80
51559;DHT22;61650;48.882;2.092;2022-10-16T15:01:57;19.20;80.90
51559;DHT22;61650;48.882;2.092;2022-10-16T15:04:23;19.10;82.40
51559;DHT22;61650;48.882;2.092;2022-10-16T15:06:49;19.10;82.50
51559;DHT22;61650;48.882;2.092;2022-10-16T15:09:15;19.00;82.30
51559;DHT22;61650;48.882;2.092;2022-10-16T15:11:41;19.10;83.40
51559;DHT22;61650;48.882;2.092;2022-10-16T15:14:13;19.10;82.90
51559;DHT22;61650;48.882;2.092;2022-10-16T15:16:39;19.20;83.10
51559;DHT22;61650;48.882;2.092;2022-10-16T15:19:04;19.30;82.20
51559;DHT22;61650;48.882;2.092;2022-10-16T15:21:32;19.30;81.30
51559;DHT22;61650;48.882;2.092;2022-10-16T15:23:59;19.30;82.10
51559;DHT22;61650;48.882;2.092;2022-10-16T15:26:29;19.20;82.30
51559;DHT22;61650;48.882;2.092;2022-10-16T15:28:55;19.10;82.40
51559;DHT22;61650;48.882;2.092;2022-10-16T15:31:21;19.10;82.50
51559;DHT22;61650;48.882;2.092;2022-10-16T15:33:52;19.10;81.80
51559;DHT22;61650;48.882;2.092;2022-10-16T15:36:35;19.00;82.40
51559;DHT22;61650;48.882;2.092;2022-10-16T15:39:03;19.00;84.10
51559;DHT22;61650;48.882;2.092;2022-10-16T15:41:29;18.90;84.10
51559;DHT22;61650;48.882;2.092;2022-10-16T15:43:54;18.90;83.00
51559;DHT22;61650;48.882;2.092;2022-10-16T15:46:22;18.90;83.60
51559;DHT22;61650;48.882;2.092;2022-10-16T15:48:48;18.90;83.70
51559;DHT22;61650;48.882;2.092;2022-10-16T15:51:14;18.90;83.50
51559;DHT22;61650;48.882;2.092;2022-10-16T15:53:40;18.90;83.90
51559;DHT22;61650;48.882;2.092;2022-10-16T15:56:07;18.80;84.50
51559;DHT22;61650;48.882;2.092;2022-10-16T15:58:33;18.80;84.40
51559;DHT22;61650;48.882;2.092;2022-10-16T16:01:00;18.70;85.00
51559;DHT22;61650;48.882;2.092;2022-10-16T16:03:27;18.70;84.90
51559;DHT22;61650;48.882;2.092;2022-10-16T16:05:54;18.70;85.20
51559;DHT22;61650;48.882;2.092;2022-10-16T16:08:20;18.70;85.60
51559;DHT22;61650;48.882;2.092;2022-10-16T16:10:56;18.80;85.70
51559;DHT22;61650;48.882;2.092;2022-10-16T16:13:22;18.70;85.60
51559;DHT22;61650;48.882;2.092;2022-10-16T16:15:47;18.70;85.70
51559;DHT22;61650;48.882;2.092;2022-10-16T16:18:13;18.70;86.20
51559;DHT22;61650;48.882;2.092;2022-10-16T16:20:38;18.70;86.10
51559;DHT22;61650;48.882;2.092;2022-10-16T16:23:04;18.60;85.80
51559;DHT22;61650;48.882;2.092;2022-10-16T16:25:30;18.50;86.00
51559;DHT22;61650;48.882;2.092;2022-10-16T16:27:56;18.40;85.90
51559;DHT22;61650;48.882;2.092;2022-10-16T16:30:21;18.40;86.50
51559;DHT22;61650;48.882;2.092;2022-10-16T16:32:47;18.30;86.10
51559;DHT22;61650;48.882;2.092;2022-10-16T16:35:12;18.20;86.50
51559;DHT22;61650;48.882;2.092;2022-10-16T16:37:38;18.20;86.60
51559;DHT22;61650;48.882;2.092;2022-10-16T16:40:04;18.20;86.80
51559;DHT22;61650;48.882;2.092;2022-10-16T16:42:29;18.10;87.60
51559;DHT22;61650;48.882;2.092;2022-10-16T16:44:55;18.00;86.40
51559;DHT22;61650;48.882;2.092;2022-10-16T16:47:21;17.90;87.20
51559;DHT22;61650;48.882;2.092;2022-10-16T16:49:46;17.90;87.50
51559;DHT22;61650;48.882;2.092;2022-10-16T16:52:13;17.90;87.90
51559;DHT22;61650;48.882;2.092;2022-10-16T16:54:39;17.80;88.10
51559;DHT22;61650;48.882;2.092;2022-10-16T16:57:04;17.70;87.30
51559;DHT22;61650;48.882;2.092;2022-10-16T16:59:30;17.60;87.60
51559;DHT22;61650;48.882;2.092;2022-10-16T17:02:02;17.50;88.00
51559;DHT22;61650;48.882;2.092;2022-10-16T17:04:27;17.50;88.40
51559;DHT22;61650;48.882;2.092;2022-10-16T17:06:54;17.40;88.70
51559;DHT22;61650;48.882;2.092;2022-10-16T17:09:20;17.40;88.30
51559;DHT22;61650;48.882;2.092;2022-10-16T17:11:46;17.20;88.50
51559;DHT22;61650;48.882;2.092;2022-10-16T17:14:13;17.10;89.20
51559;DHT22;61650;48.882;2.092;2022-10-16T17:16:40;17.20;89.50
51559;DHT22;61650;48.882;2.092;2022-10-16T17:19:13;17.20;89.30
51559;DHT22;61650;48.882;2.092;2022-10-16T17:21:39;17.10;89.60
51559;DHT22;61650;48.882;2.092;2022-10-16T17:24:05;17.00;89.90
51559;DHT22;61650;48.882;2.092;2022-10-16T17:26:32;17.00;90.00
51559;DHT22;61650;48.882;2.092;2022-10-16T17:29:00;17.00;90.40
51559;DHT22;61650;48.882;2.092;2022-10-16T17:31:28;17.00;90.20
51559;DHT22;61650;48.882;2.092;2022-10-16T17:33:54;17.00;90.30
51559;DHT22;61650;48.882;2.092;2022-10-16T17:36:21;16.90;90.10
51559;DHT22;61650;48.882;2.092;2022-10-16T17:38:47;16.90;90.70
51559;DHT22;61650;48.882;2.092;2022-10-16T17:41:23;16.80;90.70
51559;DHT22;61650;48.882;2.092;2022-10-16T17:43:49;16.80;91.10
51559;DHT22;61650;48.882;2.092;2022-10-16T17:46:17;16.70;91.00